Time;durP1;ratioP1;P1;durP2;ratioP2;P2;SDS_P1;SDS_P2;PMS_P1;PMS_P2;Temp;Humidity;BMP_temperature;BMP_pressure;BME280_temperature;BME280_humidity;BME280_pressure;Samples;Min_cycle;Max_cycle;Signal;HPM_P1;HPM_P2
2021/07/21 00:00:31;;;;;;;4.95;3.55;;;;;;;18.41;77.96;100549.81;1657655;85;25769;-61
2021/07/21 00:02:59;;;;;;;6.70;3.37;;;;;;;18.40;77.71;100547.27;1640679;86;25715;-61
2021/07/21 00:05:28;;;;;;;8.68;3.50;;;;;;;18.37;77.73;100543.58;1654769;85;25770;-61
2021/07/21 00:07:56;;;;;;;8.68;3.40;;;;;;;18.35;77.51;100545.65;1641090;86;26903;-61
2021/07/21 00:10:27;;;;;;;11.48;3.85;;;;;;;18.26;77.24;100544.41;1668927;85;25802;-62
2021/07/21 00:15:52;;;;;;;9.60;3.58;;;;;;;18.20;77.46;100547.88;1673349;85;25905;-61
2021/07/21 00:18:25;;;;;;;6.90;3.80;;;;;;;18.18;77.24;100545.03;1660547;84;25827;-61
2021/07/21 00:20:48;;;;;;;7.05;3.67;;;;;;;18.14;77.27;100544.58;1670381;83;28658;-61
2021/07/21 00:23:17;;;;;;;5.85;3.70;;;;;;;18.08;77.22;100544.81;1640480;86;25950;-61
2021/07/21 00:25:45;;;;;;;6.30;4.03;;;;;;;18.05;76.96;100542.50;1653886;85;25756;-61
2021/07/21 00:28:13;;;;;;;5.58;3.90;;;;;;;18.06;77.13;100546.91;1653315;85;25805;-61
2021/07/21 00:30:41;;;;;;;9.03;3.25;;;;;;;18.04;77.42;100542.67;1653610;85;25875;-61
2021/07/21 00:33:10;;;;;;;8.20;3.35;;;;;;;17.98;77.26;100541.55;1653095;84;27559;-61
2021/07/21 00:35:37;;;;;;;8.35;3.90;;;;;;;17.94;77.18;100549.22;1653504;85;25985;-61
2021/07/21 00:38:04;;;;;;;8.98;3.75;;;;;;;17.92;77.46;100551.31;1653501;86;25843;-61
2021/07/21 00:40:33;;;;;;;7.58;3.92;;;;;;;17.86;77.97;100546.61;1656592;85;26183;-61
2021/07/21 00:43:00;;;;;;;8.20;3.95;;;;;;;17.84;78.50;100544.59;1655769;86;25794;-61
2021/07/21 00:45:27;;;;;;;8.43;4.40;;;;;;;17.74;78.57;100542.17;1648332;86;27406;-61
2021/07/21 00:47:54;;;;;;;5.05;3.98;;;;;;;17.66;79.21;100542.28;1646345;87;25845;-61
2021/07/21 00:50:23;;;;;;;7.60;4.37;;;;;;;17.60;79.21;100543.04;1646396;87;25883;-60
2021/07/21 00:52:52;;;;;;;8.08;3.92;;;;;;;17.57;79.10;100547.48;1646422;87;26417;-61
2021/07/21 00:55:21;;;;;;;6.53;3.80;;;;;;;17.48;79.28;100547.58;1646194;85;25811;-61
2021/07/21 00:57:50;;;;;;;7.53;3.58;;;;;;;17.42;79.61;100547.48;1648739;86;27509;-60
2021/07/21 01:00:20;;;;;;;6.15;4.00;;;;;;;17.35;80.05;100539.22;1664005;86;26585;-60
2021/07/21 01:02:53;;;;;;;6.75;4.45;;;;;;;17.35;79.78;100547.38;1654778;84;26485;-60
2021/07/21 01:05:30;;;;;;;7.50;3.60;;;;;;;17.29;79.94;100540.84;1648223;85;25823;-60
2021/07/21 01:07:59;;;;;;;7.70;4.20;;;;;;;17.25;80.33;100544.11;1648053;85;25828;-61
2021/07/21 01:10:28;;;;;;;9.35;3.62;;;;;;;17.23;80.36;100548.88;1647814;86;27402;-61
2021/07/21 01:13:14;;;;;;;10.32;4.00;;;;;;;17.20;80.17;100549.58;1648210;87;25700;-60
2021/07/21 01:15:49;;;;;;;8.00;3.90;;;;;;;17.20;80.25;100541.95;1648199;86;25780;-60
2021/07/21 01:18:25;;;;;;;12.95;4.50;;;;;;;17.21;80.34;100547.19;1645145;86;25768;-60
2021/07/21 01:21:29;;;;;;;8.53;4.00;;;;;;;17.24;80.62;100553.30;1646444;85;25717;-61
2021/07/21 01:24:06;;;;;;;;;;;;;;;17.19;80.83;100543.80;1625498;87;27498;-61
2021/07/21 01:27:13;;;;;;;6.53;3.95;;;;;;;17.09;81.59;100540.50;1640681;86;25896;-60
2021/07/21 01:29:45;;;;;;;7.22;3.90;;;;;;;16.99;81.88;100552.14;1640771;87;25834;-60
2021/07/21 01:32:16;;;;;;;14.78;4.05;;;;;;;16.89;82.80;100545.59;1646587;87;26466;-62
2021/07/21 01:34:44;;;;;;;5.87;4.03;;;;;;;16.89;82.19;100545.59;1648203;86;26164;-61
2021/07/21 01:37:13;;;;;;;9.40;3.80;;;;;;;16.88;82.41;100543.41;1646413;85;27011;-60
2021/07/21 01:39:44;;;;;;;7.42;4.10;;;;;;;16.86;82.31;100535.94;1648006;85;26628;-61
2021/07/21 01:42:15;;;;;;;5.58;3.77;;;;;;;16.84;82.38;100536.63;1626112;87;26382;-61
2021/07/21 01:44:47;;;;;;;5.90;3.80;;;;;;;16.83;83.20;100540.38;1647506;87;25774;-61
2021/07/21 01:47:22;;;;;;;9.93;5.28;;;;;;;16.79;82.87;100539.56;1684271;84;25483;-61
2021/07/21 01:49:51;;;;;;;9.28;4.05;;;;;;;16.76;83.16;100541.30;1683806;84;27506;-61
2021/07/21 01:52:24;;;;;;;7.47;4.12;;;;;;;16.72;83.20;100540.30;1691716;84;25508;-61
2021/07/21 01:54:55;;;;;;;;;;;;;;;16.69;83.31;100536.58;1709614;82;25829;-61
2021/07/21 01:57:24;;;;;;;9.98;4.17;;;;;;;16.68;83.76;100543.56;1707249;82;25863;-61
2021/07/21 01:59:58;;;;;;;7.78;3.77;;;;;;;16.70;83.42;100538.27;1684289;83;25721;-61
2021/07/21 02:02:29;;;;;;;5.25;3.75;;;;;;;16.70;83.18;100546.42;1682684;83;27541;-60
2021/07/21 02:05:00;;;;;;;14.35;3.72;;;;;;;16.72;83.00;100540.80;1701132;84;26150;-61
2021/07/21 02:07:32;;;;;;;9.55;4.50;;;;;;;16.73;82.67;100537.06;1686929;84;25796;-60
2021/07/21 02:10:01;;;;;;;8.30;4.25;;;;;;;16.76;82.74;100546.21;1680928;84;25853;-61
2021/07/21 02:12:51;;;;;;;6.87;4.30;;;;;;;16.73;82.76;100539.28;1707247;84;25777;-61
2021/07/21 02:15:20;;;;;;;8.40;4.17;;;;;;;16.78;83.00;100555.03;1678155;83;27435;-61
2021/07/21 02:17:49;;;;;;;7.70;3.70;;;;;;;16.82;82.74;100556.86;1698448;82;25866;-60
2021/07/21 02:20:16;;;;;;;7.65;4.15;;;;;;;16.82;82.75;100553.62;1706254;83;25796;-60
2021/07/21 02:22:49;;;;;;;8.18;4.28;;;;;;;16.81;82.16;100560.08;1715059;83;25885;-60
2021/07/21 02:25:28;;;;;;;9.13;4.12;;;;;;;16.80;82.49;100557.06;1712207;83;25782;-60
2021/07/21 02:27:58;;;;;;;7.80;4.28;;;;;;;16.79;82.66;100555.36;1714448;83;27402;-60
2021/07/21 02:30:26;;;;;;;9.60;3.90;;;;;;;16.85;82.65;100565.49;1710111;83;25796;-60
2021/07/21 02:33:10;;;;;;;6.33;4.30;;;;;;;16.89;82.09;100563.25;1705061;82;25762;-60
2021/07/21 02:35:37;;;;;;;6.65;3.92;;;;;;;16.90;82.04;100574.45;1704966;82;25814;-60
2021/07/21 02:38:06;;;;;;;6.40;4.97;;;;;;;16.94;81.97;100568.17;1704950;82;25833;-60
2021/07/21 02:40:34;;;;;;;8.90;4.67;;;;;;;16.97;82.03;100578.69;1704340;82;28251;-60
2021/07/21 02:43:03;;;;;;;10.20;4.85;;;;;;;16.98;81.75;100570.34;1702330;83;25915;-60
2021/07/21 02:45:31;;;;;;;7.37;3.90;;;;;;;16.99;81.29;100571.17;1695252;84;25765;-60
2021/07/21 02:47:58;;;;;;;7.35;4.70;;;;;;;17.03;81.05;100571.14;1685508;85;26500;-60
2021/07/21 02:50:25;;;;;;;11.75;4.70;;;;;;;17.03;80.89;100567.90;1685400;85;25693;-60
2021/07/21 02:53:12;;;;;;;7.20;4.20;;;;;;;17.06;80.77;100572.15;1685368;85;27454;-59
2021/07/21 02:55:57;;;;;;;9.30;4.33;;;;;;;17.06;80.30;100568.07;1649819;84;25938;-60
2021/07/21 02:58:48;;;;;;;16.10;4.33;;;;;;;17.09;80.06;100562.77;1690863;84;25750;-60
2021/07/21 03:01:19;;;;;;;7.55;4.42;;;;;;;17.11;80.09;100564.80;1704973;82;26382;-61
2021/07/21 03:03:49;;;;;;;14.73;4.97;;;;;;;17.14;79.58;100578.00;1674515;85;25761;-61
2021/07/21 03:06:22;;;;;;;6.97;4.35;;;;;;;17.14;79.36;100571.20;1657489;86;27463;-61
2021/07/21 03:09:02;;;;;;;9.78;5.05;;;;;;;17.14;79.35;100572.06;1657624;86;25847;-61
2021/07/21 03:11:36;;;;;;;8.85;4.20;;;;;;;17.14;79.08;100578.86;1657703;86;25774;-61
2021/07/21 03:14:06;;;;;;;7.67;4.20;;;;;;;17.14;79.00;100578.86;1677467;83;25793;-61
2021/07/21 03:16:47;;;;;;;6.60;4.30;;;;;;;17.17;78.81;100578.47;1699971;82;25543;-60
2021/07/21 03:19:24;;;;;;;6.67;4.37;;;;;;;17.14;78.18;100591.09;1652731;86;27597;-60
2021/07/21 03:21:56;;;;;;;10.95;4.60;;;;;;;17.15;78.30;100595.51;1662703;85;25729;-60
2021/07/21 03:24:26;;;;;;;10.15;4.45;;;;;;;17.11;78.18;100592.81;1714035;83;25783;-60
2021/07/21 03:26:55;;;;;;;8.93;4.53;;;;;;;17.12;78.13;100594.50;1714086;83;26450;-61
2021/07/21 03:29:28;;;;;;;40.75;21.35;;;;;;;17.13;78.34;100598.91;1702494;83;25778;-61
2021/07/21 03:31:58;;;;;;;11.40;4.65;;;;;;;17.15;78.40;100595.51;1685289;85;27503;-61
2021/07/21 03:34:36;;;;;;;6.62;4.25;;;;;;;17.18;78.34;100601.08;1685366;83;25504;-63
2021/07/21 03:37:08;;;;;;;7.53;4.53;;;;;;;17.17;78.54;100605.66;1685069;85;25745;-62
2021/07/21 03:39:42;;;;;;;11.10;4.12;;;;;;;17.18;78.33;100605.98;1685407;83;25798;-62
2021/07/21 03:42:30;;;;;;;11.73;4.70;;;;;;;17.19;78.27;100594.09;1639126;84;26390;-62
2021/07/21 03:45:08;;;;;;;6.15;4.30;;;;;;;17.20;78.04;100601.22;1703018;82;26222;-63
2021/07/21 03:47:34;;;;;;;5.37;4.00;;;;;;;17.25;78.20;100595.77;1697751;82;25750;-62
2021/07/21 03:50:23;;;;;;;6.50;3.47;;;;;;;17.23;78.08;100603.25;1704433;82;25707;-63
2021/07/21 03:53:05;;;;;;;5.92;4.08;;;;;;;17.26;77.93;100598.81;1678284;83;25794;-63
2021/07/21 03:55:41;;;;;;;7.28;3.95;;;;;;;17.27;78.05;100596.39;1684916;83;25793;-63
2021/07/21 03:58:22;;;;;;;8.50;4.87;;;;;;;17.34;77.92;100605.53;1697959;82;28846;-63
2021/07/21 04:00:56;;;;;;;7.33;3.98;;;;;;;17.32;77.78;100608.94;1676181;84;25887;-62
2021/07/21 04:03:27;;;;;;;6.67;3.45;;;;;;;17.39;77.91;100609.05;1685433;85;26130;-61
2021/07/21 04:06:05;;;;;;;8.18;4.10;;;;;;;17.39;77.54;100605.80;1685415;83;25838;-61
2021/07/21 04:08:53;;;;;;;8.73;4.17;;;;;;;17.43;77.82;100608.50;1685208;85;25773;-61
2021/07/21 04:11:26;;;;;;;6.90;3.60;;;;;;;17.44;77.40;100608.80;1698036;82;28310;-61
2021/07/21 04:13:55;;;;;;;6.80;3.72;;;;;;;17.44;77.30;100609.33;1705196;83;25708;-60
2021/07/21 04:16:33;;;;;;;7.67;4.22;;;;;;;17.47;77.52;100599.45;1699902;82;25832;-61
2021/07/21 04:19:03;;;;;;;8.58;4.35;;;;;;;17.47;77.17;100607.08;1726505;83;26579;-61
2021/07/21 04:21:31;;;;;;;6.40;4.30;;;;;;;17.49;77.46;100610.47;1714083;83;25803;-61
2021/07/21 04:24:01;;;;;;;9.38;3.47;;;;;;;17.56;77.43;100598.83;1714228;82;27425;-61
2021/07/21 04:26:29;;;;;;;7.35;4.58;;;;;;;17.57;77.37;100610.04;1705260;82;25781;-61
2021/07/21 04:28:59;;;;;;;9.43;4.17;;;;;;;17.53;77.49;100609.05;1671823;84;25790;-61
2021/07/21 04:31:26;;;;;;;5.90;4.10;;;;;;;17.53;77.83;100618.56;1685274;85;25777;-62
2021/07/21 04:33:57;;;;;;;6.60;4.42;;;;;;;17.51;77.70;100613.84;1685447;85;25777;-61
2021/07/21 04:36:26;;;;;;;11.05;4.58;;;;;;;17.48;77.62;100614.20;1685509;83;27481;-61
2021/07/21 04:38:54;;;;;;;9.35;4.28;;;;;;;17.49;77.69;100610.47;1685448;85;25788;-61
2021/07/21 04:41:33;;;;;;;7.53;4.37;;;;;;;17.51;77.76;100612.98;1681585;85;25793;-62
2021/07/21 04:44:08;;;;;;;8.15;4.37;;;;;;;17.58;78.07;100616.64;1684355;85;25880;-61
2021/07/21 04:46:43;;;;;;;8.95;4.87;;;;;;;17.61;77.91;100617.64;1684232;85;25727;-61
2021/07/21 04:49:15;;;;;;;10.05;4.53;;;;;;;17.62;77.82;100619.83;1685490;85;27470;-61
2021/07/21 04:51:44;;;;;;;8.00;4.67;;;;;;;17.64;77.68;100615.92;1685343;85;25788;-62
2021/07/21 04:54:16;;;;;;;7.20;4.67;;;;;;;17.71;77.45;100621.44;1687498;84;25665;-61
2021/07/21 04:56:43;;;;;;;5.80;4.42;;;;;;;17.72;77.50;100625.84;1704738;82;25463;-61
2021/07/21 04:59:13;;;;;;;7.95;3.98;;;;;;;17.75;77.37;100621.94;1705153;82;25746;-59
2021/07/21 05:01:42;;;;;;;5.60;4.22;;;;;;;17.75;77.58;100617.32;1705297;82;27436;-59
2021/07/21 05:04:09;;;;;;;6.20;4.40;;;;;;;17.75;77.50;100620.05;1704821;84;25707;-59
2021/07/21 05:06:46;;;;;;;10.90;4.75;;;;;;;17.78;77.73;100620.17;1702849;82;25710;-59
2021/07/21 05:09:14;;;;;;;8.35;4.62;;;;;;;17.78;77.75;100611.52;1700269;82;25821;-59
2021/07/21 05:11:58;;;;;;;9.55;5.17;;;;;;;17.76;77.78;100615.43;1684777;85;25734;-60
2021/07/21 05:14:25;;;;;;;10.50;5.35;;;;;;;17.79;77.89;100617.29;1685658;85;28124;-60
2021/07/21 05:17:09;;;;;;;7.45;5.05;;;;;;;17.88;77.95;100622.63;1673712;83;25807;-60
2021/07/21 05:19:37;;;;;;;7.17;4.70;;;;;;;17.95;77.75;100624.39;1686867;84;26146;-61
2021/07/21 05:22:05;;;;;;;9.53;4.78;;;;;;;18.04;77.74;100608.86;1699773;84;25864;-60
2021/07/21 05:24:32;;;;;;;8.93;5.03;;;;;;;18.14;77.34;100616.71;1680692;84;25846;-60
2021/07/21 05:27:00;;;;;;;12.15;5.03;;;;;;;18.26;77.13;100609.76;1680294;85;27520;-60
2021/07/21 05:29:29;;;;;;;13.68;5.55;;;;;;;18.37;76.70;100611.13;1676188;84;25956;-60
2021/07/21 05:31:58;;;;;;;12.65;5.55;;;;;;;18.45;76.37;100620.55;1670492;85;25852;-60
2021/07/21 05:34:27;;;;;;;12.75;5.00;;;;;;;18.44;75.79;100620.22;1671461;85;26418;-61
2021/07/21 05:36:59;;;;;;;8.05;5.15;;;;;;;18.48;75.98;100622.56;1661362;85;25832;-60
2021/07/21 05:39:27;;;;;;;8.85;5.22;;;;;;;18.53;76.07;100616.87;1674765;85;27505;-61
2021/07/21 05:41:56;;;;;;;16.57;5.30;;;;;;;18.54;75.47;100617.70;1675072;84;25778;-61
2021/07/21 05:44:26;;;;;;;9.75;5.28;;;;;;;18.55;75.56;100621.62;1675381;85;25796;-60
2021/07/21 05:46:54;;;;;;;8.10;5.37;;;;;;;18.59;75.57;100622.91;1675457;83;25923;-60
2021/07/21 05:49:22;;;;;;;7.97;5.33;;;;;;;18.65;75.38;100628.63;1674193;85;25735;-61
2021/07/21 05:51:54;;;;;;;10.32;5.80;;;;;;;18.59;74.77;100623.44;1635619;85;27506;-60
2021/07/21 05:54:23;;;;;;;11.48;4.85;;;;;;;18.56;75.08;100621.08;1674490;85;25749;-60
2021/07/21 05:56:51;;;;;;;8.23;4.72;;;;;;;18.52;75.02;100626.58;1674983;85;25566;-60
2021/07/21 05:59:20;;;;;;;12.05;5.47;;;;;;;18.48;75.14;100626.66;1670279;85;28002;-60
2021/07/21 06:01:46;;;;;;;9.13;4.92;;;;;;;18.51;75.24;100630.36;1649096;85;25869;-60
2021/07/21 06:04:14;;;;;;;11.15;5.37;;;;;;;18.54;75.15;100634.05;1663324;85;27445;-61
2021/07/21 06:06:43;;;;;;;7.80;4.62;;;;;;;18.56;75.13;100634.70;1660864;85;25862;-61
2021/07/21 06:09:29;;;;;;;9.40;5.95;;;;;;;18.62;75.08;100633.92;1667293;85;25749;-60
2021/07/21 06:12:05;;;;;;;7.67;4.70;;;;;;;18.62;74.40;100636.65;1659859;85;26584;-60
2021/07/21 06:14:33;;;;;;;9.88;5.47;;;;;;;18.61;74.33;100630.37;1666443;85;25886;-60
2021/07/21 06:17:01;;;;;;;11.68;4.65;;;;;;;18.67;74.31;100639.66;1660449;85;28404;-61
2021/07/21 06:19:36;;;;;;;9.58;4.70;;;;;;;18.64;73.87;100640.56;1618312;86;25878;-61
2021/07/21 06:22:07;;;;;;;9.40;4.92;;;;;;;18.63;73.63;100649.77;1640338;85;25873;-63
2021/07/21 06:24:43;;;;;;;9.00;4.45;;;;;;;18.60;73.68;100645.03;1636597;86;26564;-61
2021/07/21 06:27:14;;;;;;;8.50;4.85;;;;;;;18.62;73.66;100644.83;1640213;85;26104;-62
2021/07/21 06:29:45;;;;;;;9.98;4.95;;;;;;;18.64;73.54;100637.31;1642282;86;27581;-61
2021/07/21 06:32:13;;;;;;;10.35;4.83;;;;;;;18.72;73.71;100641.27;1641439;86;25663;-61
2021/07/21 06:34:39;;;;;;;11.18;4.95;;;;;;;18.74;73.41;100640.56;1638772;87;25690;-60
2021/07/21 06:37:08;;;;;;;7.22;4.25;;;;;;;18.80;73.48;100646.27;1629271;87;25834;-61
2021/07/21 06:39:35;;;;;;;8.78;4.62;;;;;;;18.83;72.87;100650.81;1640300;86;25773;-61
2021/07/21 06:42:04;;;;;;;15.15;5.33;;;;;;;18.87;73.06;100649.93;1643216;86;28216;-61
2021/07/21 06:44:32;;;;;;;7.33;4.72;;;;;;;18.90;72.81;100657.70;1613768;86;25878;-61
2021/07/21 06:47:16;;;;;;;13.83;4.70;;;;;;;18.91;72.21;100648.48;1604732;89;25842;-61
2021/07/21 06:49:44;;;;;;;10.58;5.15;;;;;;;18.88;72.16;100647.00;1597185;89;25823;-61
2021/07/21 06:52:11;;;;;;;12.70;4.67;;;;;;;18.91;72.20;100651.21;1599435;89;25849;-61
2021/07/21 06:54:39;;;;;;;9.93;4.65;;;;;;;18.95;72.03;100644.37;1598673;88;27389;-61
2021/07/21 06:57:13;;;;;;;9.73;4.17;;;;;;;19.00;72.21;100647.35;1576504;88;25579;-61
2021/07/21 06:59:47;;;;;;;10.00;5.15;;;;;;;19.05;71.66;100643.51;1597850;89;25783;-60
2021/07/21 07:02:16;;;;;;;10.43;5.00;;;;;;;19.07;71.43;100643.33;1602200;88;25909;-61
2021/07/21 07:04:54;;;;;;;14.38;4.50;;;;;;;19.14;71.07;100648.32;1592856;87;26489;-61
2021/07/21 07:07:28;;;;;;;18.87;4.60;;;;;;;19.26;71.42;100646.44;1566646;86;28303;-61
2021/07/21 07:10:15;;;;;;;9.63;5.03;;;;;;;19.34;70.54;100646.29;1585850;87;25863;-61
2021/07/21 07:12:47;;;;;;;7.10;4.25;;;;;;;19.42;70.59;100639.33;1609118;88;25767;-61
2021/07/21 07:15:14;;;;;;;8.75;4.17;;;;;;;19.54;70.63;100646.44;1606190;88;25804;-61
2021/07/21 07:17:41;;;;;;;11.10;4.28;;;;;;;19.58;70.00;100648.24;1635162;85;25847;-61
2021/07/21 07:20:10;;;;;;;6.20;3.77;;;;;;;19.59;69.27;100648.03;1638697;85;27479;-60
2021/07/21 07:22:37;;;;;;;13.98;5.00;;;;;;;19.62;69.05;100634.00;1630439;86;26278;-60
2021/07/21 07:25:05;;;;;;;7.87;5.00;;;;;;;19.60;68.87;100644.80;1618919;86;26337;-60
2021/07/21 07:27:32;;;;;;;8.03;3.80;;;;;;;19.64;69.36;100640.11;1621914;87;25818;-60
2021/07/21 07:30:00;;;;;;;8.15;4.22;;;;;;;19.76;69.06;100642.30;1606256;89;25892;-60
2021/07/21 07:32:28;;;;;;;9.75;4.20;;;;;;;19.81;68.73;100648.81;1617208;87;27442;-61
2021/07/21 07:34:55;;;;;;;12.98;4.92;;;;;;;19.93;68.99;100640.09;1615227;88;25977;-60
2021/07/21 07:37:21;;;;;;;6.40;4.00;;;;;;;19.96;68.38;100646.53;1615143;88;25821;-61
2021/07/21 07:39:49;;;;;;;10.03;4.37;;;;;;;20.02;68.22;100644.34;1619495;87;26577;-60
2021/07/21 07:42:16;;;;;;;9.43;5.75;;;;;;;20.11;68.23;100639.04;1664246;84;25747;-61
2021/07/21 07:44:43;;;;;;;8.38;4.80;;;;;;;20.11;67.71;100643.14;1644723;85;27470;-61
2021/07/21 07:47:10;;;;;;;11.57;4.97;;;;;;;20.14;67.42;100645.98;1656342;85;25987;-61
2021/07/21 07:49:37;;;;;;;9.00;4.35;;;;;;;20.21;67.96;100648.24;1654854;85;26058;-60
2021/07/21 07:52:04;;;;;;;12.15;6.10;;;;;;;20.38;67.63;100645.16;1654807;86;26427;-61
2021/07/21 07:54:32;;;;;;;10.43;5.20;;;;;;;20.54;66.79;100643.42;1676976;84;25828;-60
2021/07/21 07:56:59;;;;;;;7.28;4.20;;;;;;;20.61;66.54;100646.19;1676484;84;27421;-61
2021/07/21 07:59:25;;;;;;;9.30;4.55;;;;;;;20.75;66.87;100646.55;1679757;85;25716;-61
2021/07/21 08:01:52;;;;;;;13.18;5.00;;;;;;;20.91;66.75;100643.97;1680354;85;25843;-61
2021/07/21 08:04:19;;;;;;;12.53;4.87;;;;;;;21.06;66.38;100645.14;1682340;83;25800;-60
2021/07/21 08:06:46;;;;;;;14.00;5.58;;;;;;;21.07;65.37;100646.80;1689340;83;25805;-61
2021/07/21 08:09:13;;;;;;;8.85;4.37;;;;;;;21.07;65.56;100651.45;1678492;84;27446;-61
2021/07/21 08:11:45;;;;;;;10.55;4.62;;;;;;;21.00;64.88;100641.03;1679425;85;25811;-61
2021/07/21 08:14:14;;;;;;;8.73;4.78;;;;;;;20.89;65.31;100646.06;1668601;83;25783;-60
2021/07/21 08:16:42;;;;;;;9.45;4.70;;;;;;;20.86;65.62;100648.37;1681573;84;25902;-61
2021/07/21 08:19:09;;;;;;;9.48;4.55;;;;;;;20.79;65.85;100645.11;1696036;83;25865;-61
2021/07/21 08:21:40;;;;;;;8.75;3.98;;;;;;;20.84;66.22;100652.69;1707360;82;28228;-61
2021/07/21 08:24:07;;;;;;;13.48;4.40;;;;;;;20.85;65.96;100651.61;1680758;84;25759;-63
2021/07/21 08:26:35;;;;;;;7.30;4.20;;;;;;;20.92;66.31;100649.75;1683593;84;25708;-62
2021/07/21 08:29:03;;;;;;;9.10;4.67;;;;;;;20.99;66.20;100656.58;1684562;83;25904;-62
2021/07/21 08:31:30;;;;;;;7.92;4.83;;;;;;;20.99;65.75;100665.31;1682768;85;25819;-62
2021/07/21 08:34:00;;;;;;;8.50;4.70;;;;;;;20.86;65.85;100657.39;1678086;83;27550;-62
2021/07/21 08:36:31;;;;;;;8.60;4.50;;;;;;;20.81;66.19;100673.59;1683243;83;25863;-62
2021/07/21 08:38:58;;;;;;;12.47;4.87;;;;;;;20.76;66.34;100675.58;1661486;82;26415;-62
2021/07/21 08:41:29;;;;;;;8.15;3.60;;;;;;;20.79;66.22;100668.84;1683991;85;25786;-62
2021/07/21 08:43:56;;;;;;;8.95;4.60;;;;;;;20.62;66.07;100671.93;1656989;85;26644;-62
2021/07/21 08:46:24;;;;;;;9.23;4.50;;;;;;;20.61;66.44;100672.14;1669892;85;27555;-60
2021/07/21 08:48:54;;;;;;;8.83;4.62;;;;;;;20.49;66.58;100667.27;1680854;84;26494;-62
2021/07/21 08:51:25;;;;;;;9.63;4.20;;;;;;;20.57;66.84;100671.72;1681188;84;25795;-62
2021/07/21 08:53:53;;;;;;;10.90;4.95;;;;;;;20.50;66.59;100668.09;1660914;84;25916;-62
2021/07/21 08:56:21;;;;;;;9.68;4.65;;;;;;;20.58;67.16;100667.08;1684481;84;25798;-62
2021/07/21 08:58:49;;;;;;;9.53;4.58;;;;;;;20.63;66.97;100669.52;1674266;82;27406;-61
2021/07/21 09:01:18;;;;;;;8.50;4.35;;;;;;;20.70;66.93;100659.12;1663014;84;25866;-60
2021/07/21 09:03:46;;;;;;;8.20;4.37;;;;;;;20.76;66.57;100666.52;1655248;85;25806;-60
2021/07/21 09:06:13;;;;;;;5.97;4.10;;;;;;;20.83;66.32;100665.17;1682948;83;26864;-60
2021/07/21 09:08:42;;;;;;;9.68;4.70;;;;;;;20.79;66.34;100666.11;1683953;85;25792;-60
2021/07/21 09:11:11;;;;;;;8.35;4.12;;;;;;;20.80;66.27;100671.91;1684611;84;28046;-60
2021/07/21 09:13:38;;;;;;;9.88;5.47;;;;;;;20.84;66.33;100664.98;1663347;85;25867;-60
2021/07/21 09:16:07;;;;;;;7.15;4.28;;;;;;;20.78;65.71;100674.86;1652876;83;25771;-61
2021/07/21 09:18:50;;;;;;;7.78;4.40;;;;;;;20.76;65.60;100675.58;1678696;82;26447;-61
2021/07/21 09:21:21;;;;;;;9.43;4.62;;;;;;;20.86;65.68;100674.34;1675365;84;26472;-61
2021/07/21 09:23:53;;;;;;;7.35;4.65;;;;;;;20.78;65.03;100677.59;1678497;84;28220;-62
2021/07/21 09:26:32;;;;;;;8.40;4.55;;;;;;;20.68;65.41;100676.24;1647468;85;26217;-62
2021/07/21 09:29:02;;;;;;;10.00;4.80;;;;;;;20.62;66.02;100680.13;1645090;87;25866;-61
2021/07/21 09:31:43;;;;;;;8.30;4.67;;;;;;;20.54;65.86;100673.48;1655554;85;25857;-61
2021/07/21 09:34:17;;;;;;;10.82;5.22;;;;;;;20.52;65.97;100679.66;1649284;84;25663;-61
2021/07/21 09:36:44;;;;;;;7.97;4.58;;;;;;;20.52;66.05;100672.00;1669695;85;28131;-61
2021/07/21 09:39:15;;;;;;;14.03;5.22;;;;;;;20.58;66.05;100675.27;1670071;84;25768;-61
2021/07/21 09:41:51;;;;;;;8.95;4.33;;;;;;;20.73;65.96;100677.85;1662241;85;25745;-62
2021/07/21 09:44:19;;;;;;;7.15;4.65;;;;;;;20.73;65.20;100678.71;1663823;84;26928;-61
2021/07/21 09:46:46;;;;;;;9.55;5.17;;;;;;;20.76;65.18;100681.05;1652053;85;25837;-61
2021/07/21 09:49:20;;;;;;;6.42;4.15;;;;;;;20.89;65.37;100686.20;1674309;85;27526;-61
2021/07/21 09:51:47;;;;;;;12.37;5.05;;;;;;;21.03;65.28;100675.63;1684472;84;25842;-61
2021/07/21 09:54:18;;;;;;;9.75;4.58;;;;;;;21.15;64.95;100670.38;1669846;84;25847;-61
2021/07/21 09:56:49;;;;;;;8.73;4.85;;;;;;;21.10;64.10;100682.48;1670955;85;26168;-61
2021/07/21 09:59:33;;;;;;;7.15;4.55;;;;;;;21.04;64.17;100677.33;1673153;85;25990;-61
2021/07/21 10:01:57;;;;;;;10.28;4.90;;;;;;;21.06;64.49;100676.59;1642577;84;27579;-60
2021/07/21 10:04:38;;;;;;;7.22;4.80;;;;;;;21.16;64.59;100672.07;1633378;86;25772;-61
2021/07/21 10:09:51;;;;;;;12.45;4.95;;;;;;;21.00;64.21;100684.78;1606145;87;25876;-61
2021/07/21 10:12:19;;;;;;;9.60;4.75;;;;;;;20.77;64.90;100681.88;1606538;87;25878;-62
2021/07/21 10:14:58;;;;;;;11.00;4.67;;;;;;;20.64;65.43;100680.77;1597824;89;27474;-62
2021/07/21 10:17:27;;;;;;;11.93;6.00;;;;;;;20.62;65.79;100682.00;1626356;85;25752;-60
2021/07/21 10:19:55;;;;;;;9.75;4.65;;;;;;;20.58;65.89;100681.57;1648744;86;25820;-61
2021/07/21 10:22:23;;;;;;;7.85;3.80;;;;;;;20.62;66.04;100673.80;1659855;84;25989;-61
2021/07/21 10:24:50;;;;;;;7.85;4.40;;;;;;;20.63;66.12;100679.09;1658671;85;25803;-61
2021/07/21 10:27:19;;;;;;;7.62;4.72;;;;;;;20.57;66.01;100688.11;1632472;86;27412;-61
2021/07/21 10:29:46;;;;;;;9.40;5.12;;;;;;;20.54;66.04;100672.11;1632977;86;25864;-61
2021/07/21 10:32:25;;;;;;;11.50;5.03;;;;;;;20.57;66.20;100671.72;1631991;86;25834;-65
2021/07/21 10:35:07;;;;;;;9.78;4.83;;;;;;;20.62;66.24;100667.83;1634284;86;25867;-65
2021/07/21 10:37:44;;;;;;;10.32;5.47;;;;;;;20.74;66.06;100676.30;1635365;86;25769;-61
2021/07/21 10:40:18;;;;;;;8.33;4.40;;;;;;;20.78;66.10;100684.93;1646097;86;26252;-63
2021/07/21 10:42:50;;;;;;;7.55;5.12;;;;;;;20.79;66.09;100674.31;1633355;86;25879;-62
2021/07/21 10:45:28;;;;;;;6.70;4.80;;;;;;;20.87;66.10;100678.77;1633493;86;25878;-61
2021/07/21 10:48:09;;;;;;;9.58;4.97;;;;;;;20.82;65.61;100673.91;1633066;87;25905;-60
2021/07/21 10:50:55;;;;;;;8.70;5.35;;;;;;;20.83;65.87;100669.27;1632260;85;25857;-60
2021/07/21 10:59:21;;;;;;;7.78;4.83;;;;;;;20.92;65.66;100677.60;1633483;87;25873;-60
2021/07/21 11:01:52;;;;;;;9.88;4.83;;;;;;;20.80;65.95;100676.00;1633635;87;26505;-60
2021/07/21 11:04:22;;;;;;;11.55;5.87;;;;;;;20.82;66.37;100679.38;1633180;87;25837;-60
2021/07/21 11:06:51;;;;;;;10.05;5.72;;;;;;;20.83;66.59;100682.94;1632824;87;27535;-60
2021/07/21 11:09:34;;;;;;;7.67;4.67;;;;;;;20.77;66.35;100684.09;1632180;87;25827;-60
2021/07/21 11:11:59;;;;;;;13.08;5.95;;;;;;;20.70;66.53;100683.72;1607668;89;25796;-60
2021/07/21 11:14:35;;;;;;;12.75;5.80;;;;;;;20.63;66.78;100690.52;1607396;89;25822;-60
2021/07/21 11:17:14;;;;;;;12.45;6.15;;;;;;;20.60;67.19;100692.32;1614939;87;25770;-62
2021/07/21 11:19:48;;;;;;;7.05;5.22;;;;;;;20.57;67.41;100680.42;1634137;86;27494;-60
2021/07/21 11:22:23;;;;;;;8.90;5.05;;;;;;;20.58;67.50;100684.84;1622884;87;25911;-60
2021/07/21 11:25:16;;;;;;;10.85;4.92;;;;;;;20.66;67.39;100677.00;1608736;87;25780;-60
2021/07/21 11:28:03;;;;;;;10.82;5.22;;;;;;;20.68;67.12;100681.70;1606210;87;25929;-60
2021/07/21 11:30:49;;;;;;;11.73;5.00;;;;;;;20.72;67.15;100673.43;1629408;87;26480;-60
2021/07/21 11:34:01;;;;;;;7.72;4.40;;;;;;;20.66;67.14;100680.55;1628795;86;27512;-60
2021/07/21 11:36:47;;;;;;;7.10;4.90;;;;;;;20.61;67.25;100672.14;1594829;88;25891;-60
2021/07/21 11:39:48;;;;;;;6.47;5.47;;;;;;;20.44;67.43;100666.19;1629218;86;25768;-60
2021/07/21 11:45:13;;;;;;;8.33;5.12;;;;;;;20.23;68.36;100688.46;1629780;86;25835;-60
2021/07/21 11:47:45;;;;;;;7.45;5.62;;;;;;;20.19;68.38;100674.91;1629440;88;27496;-60
2021/07/21 11:50:17;;;;;;;7.55;4.72;;;;;;;20.24;68.81;100660.11;1629758;86;25866;-60
2021/07/21 11:53:10;;;;;;;7.50;4.70;;;;;;;20.36;68.81;100674.56;1629782;87;25877;-63
2021/07/21 11:55:38;;;;;;;5.60;4.50;;;;;;;20.36;68.69;100675.92;1629185;86;26569;-61
2021/07/21 11:58:13;;;;;;;7.40;4.87;;;;;;;20.34;68.87;100682.97;1628864;86;25758;-61
2021/07/21 12:00:44;;;;;;;5.80;3.90;;;;;;;20.41;68.94;100676.14;1629492;86;27442;-61